createdAt,value
2022-08-21T00:02:05.053Z,7.53
2022-08-21T00:04:32.728Z,8.23
2022-08-21T00:07:00.336Z,9.67
2022-08-21T00:09:28.626Z,8.20
2022-08-21T00:11:56.210Z,10.63
2022-08-21T00:14:23.835Z,7.90
2022-08-21T00:16:51.916Z,9.97
2022-08-21T00:19:20.280Z,9.10
2022-08-21T00:21:49.489Z,11.53
2022-08-21T00:24:23.626Z,8.93
2022-08-21T00:26:52.360Z,8.27
2022-08-21T00:29:21.082Z,7.83
2022-08-21T00:31:48.632Z,14.93
2022-08-21T00:34:16.349Z,8.00
2022-08-21T00:36:44.492Z,12.73
2022-08-21T00:39:12.448Z,13.00
2022-08-21T00:41:41.726Z,12.67
2022-08-21T00:44:16.397Z,9.60
2022-08-21T00:46:45.123Z,10.53
2022-08-21T00:49:14.372Z,15.90
2022-08-21T00:51:56.724Z,11.40
2022-08-21T00:54:30.950Z,12.40
2022-08-21T00:57:12.696Z,14.57
2022-08-21T00:59:50.797Z,9.20
2022-08-21T01:02:21.074Z,13.60
2022-08-21T01:04:49.846Z,9.33
2022-08-21T01:07:18.664Z,13.57
2022-08-21T01:09:50.897Z,12.53
2022-08-21T01:12:20.034Z,12.10
2022-08-21T01:14:48.864Z,15.37
2022-08-21T01:17:18.408Z,13.30
2022-08-21T01:19:45.960Z,12.80
2022-08-21T01:22:14.089Z,9.83
2022-08-21T01:24:42.081Z,11.63
2022-08-21T01:27:09.740Z,13.70
2022-08-21T01:30:15.827Z,14.83
2022-08-21T01:32:44.298Z,11.77
2022-08-21T01:35:14.183Z,12.40
2022-08-21T01:37:43.881Z,13.73
2022-08-21T01:40:17.758Z,11.33
2022-08-21T01:42:47.550Z,12.37
2022-08-21T01:45:17.163Z,13.20
2022-08-21T01:47:46.998Z,17.67
2022-08-21T01:50:21.537Z,14.40
2022-08-21T01:52:50.901Z,8.13
2022-08-21T01:55:20.699Z,12.30
2022-08-21T01:57:51.357Z,12.73
2022-08-21T02:00:23.914Z,14.43
2022-08-21T02:02:52.926Z,8.03
2022-08-21T02:05:21.647Z,13.87
2022-08-21T02:07:56.562Z,10.63
2022-08-21T02:10:32.480Z,10.83
2022-08-21T02:13:02.504Z,11.33
2022-08-21T02:15:32.380Z,10.00
2022-08-21T02:18:07.324Z,12.93
2022-08-21T02:20:46.888Z,15.30
2022-08-21T02:23:16.567Z,12.70
2022-08-21T02:25:48.047Z,10.80
2022-08-21T02:28:17.024Z,15.87
2022-08-21T02:30:49.552Z,11.60
2022-08-21T02:33:19.132Z,12.27
2022-08-21T02:35:49.680Z,11.03
2022-08-21T02:38:29.101Z,10.97
2022-08-21T02:40:58.828Z,16.07
2022-08-21T02:43:29.597Z,12.57
2022-08-21T02:45:59.845Z,11.73
2022-08-21T02:48:33.207Z,10.53
2022-08-21T02:51:19.431Z,11.03
2022-08-21T02:53:50.207Z,15.30
2022-08-21T02:56:23.140Z,11.00
2022-08-21T02:58:54.631Z,10.93
2022-08-21T03:01:22.925Z,12.90
2022-08-21T03:03:54.678Z,11.77
2022-08-21T03:06:25.638Z,11.93
2022-08-21T03:08:53.279Z,11.07
2022-08-21T03:11:21.890Z,15.33
2022-08-21T03:13:49.735Z,12.73
2022-08-21T03:16:17.342Z,11.43
2022-08-21T03:18:44.812Z,12.20
2022-08-21T03:21:14.213Z,7.33
2022-08-21T03:23:43.084Z,11.97
2022-08-21T03:26:12.580Z,11.57
2022-08-21T03:28:41.462Z,9.20
2022-08-21T03:31:09.814Z,8.60
2022-08-21T03:33:37.351Z,9.90
2022-08-21T03:36:11.090Z,10.40
2022-08-21T03:38:40.659Z,9.17
2022-08-21T03:41:09.923Z,10.50
2022-08-21T03:43:39.610Z,10.97
2022-08-21T03:46:08.715Z,8.83
2022-08-21T03:48:40.029Z,13.47
2022-08-21T03:51:08.726Z,15.10
2022-08-21T03:53:37.526Z,10.53
2022-08-21T03:56:07.004Z,10.20
2022-08-21T03:58:34.907Z,12.93
2022-08-21T04:01:07.214Z,12.37
2022-08-21T04:03:38.804Z,12.60
2022-08-21T04:06:08.473Z,10.37
2022-08-21T04:08:36.659Z,11.70
2022-08-21T04:11:06.603Z,10.43
2022-08-21T04:13:34.304Z,8.10
2022-08-21T04:16:01.804Z,11.87
2022-08-21T04:18:29.516Z,10.77
2022-08-21T04:21:00.891Z,13.27
2022-08-21T04:23:30.528Z,16.23
2022-08-21T04:25:59.278Z,12.40
2022-08-21T04:28:30.367Z,13.30
2022-08-21T04:30:59.638Z,11.83
2022-08-21T04:33:27.593Z,14.43
2022-08-21T04:35:55.373Z,11.77
2022-08-21T04:38:23.527Z,14.03
2022-08-21T04:40:53.882Z,13.00
2022-08-21T04:43:24.335Z,20.20
2022-08-21T04:45:54.004Z,22.27
2022-08-21T04:48:25.252Z,19.03
2022-08-21T04:51:23.905Z,29.97
2022-08-21T04:54:07.672Z,20.30
2022-08-21T04:56:50.890Z,29.23
2022-08-21T04:59:32.735Z,24.83
2022-08-21T05:02:04.106Z,29.70
2022-08-21T05:04:37.918Z,27.13
2022-08-21T05:07:16.328Z,25.50
2022-08-21T05:10:08.833Z,20.23
2022-08-21T05:12:36.986Z,18.17
2022-08-21T05:15:06.106Z,21.73
2022-08-21T05:17:33.760Z,14.57
2022-08-21T05:20:01.288Z,19.10
2022-08-21T05:22:28.785Z,16.20
2022-08-21T05:24:56.397Z,16.30
2022-08-21T05:27:23.919Z,18.47
2022-08-21T05:29:55.308Z,19.40
2022-08-21T05:32:25.536Z,20.77
2022-08-21T05:34:53.112Z,16.13
2022-08-21T05:37:21.289Z,19.80
2022-08-21T05:40:05.272Z,16.07
2022-08-21T05:42:36.223Z,19.90
2022-08-21T05:45:04.041Z,15.37
2022-08-21T05:47:31.558Z,17.13
2022-08-21T05:49:59.364Z,14.47
2022-08-21T05:52:27.593Z,16.63
2022-08-21T05:54:55.128Z,18.57
2022-08-21T05:57:24.340Z,13.70
2022-08-21T05:59:51.899Z,12.63
2022-08-21T06:02:22.520Z,16.33
2022-08-21T06:04:50.154Z,19.90
2022-08-21T06:07:17.697Z,13.43
2022-08-21T06:09:45.193Z,9.77
2022-08-21T06:12:14.025Z,12.33
2022-08-21T06:14:43.229Z,12.47
2022-08-21T06:17:16.013Z,11.87
2022-08-21T06:19:43.525Z,12.97
2022-08-21T06:22:13.600Z,9.90
2022-08-21T06:24:41.157Z,13.97
2022-08-21T06:27:10.103Z,10.27
2022-08-21T06:29:44.553Z,10.93
2022-08-21T06:32:16.017Z,12.90
2022-08-21T06:34:43.872Z,12.33
2022-08-21T06:37:11.337Z,15.53
2022-08-21T06:39:43.274Z,10.13
2022-08-21T06:42:18.372Z,12.10
2022-08-21T06:44:46.325Z,12.07
2022-08-21T06:47:13.874Z,13.77
2022-08-21T06:49:42.312Z,11.20
2022-08-21T06:52:14.931Z,10.50
2022-08-21T06:54:42.883Z,11.67
2022-08-21T06:57:10.388Z,19.33
2022-08-21T06:59:38.733Z,10.53
2022-08-21T07:02:06.283Z,10.50
2022-08-21T07:04:33.837Z,8.73
2022-08-21T07:07:01.305Z,12.50
2022-08-21T07:09:30.011Z,9.60
2022-08-21T07:12:00.830Z,11.23
2022-08-21T07:14:29.133Z,10.60
2022-08-21T07:16:56.653Z,9.10
2022-08-21T07:19:24.498Z,8.33
2022-08-21T07:22:01.927Z,12.20
2022-08-21T07:24:30.348Z,8.17
2022-08-21T07:27:00.910Z,9.90
2022-08-21T07:29:28.534Z,11.17
2022-08-21T07:31:55.970Z,8.50
2022-08-21T07:34:23.519Z,9.73
2022-08-21T07:36:50.970Z,10.90
2022-08-21T07:39:18.409Z,7.70
2022-08-21T07:41:45.934Z,7.27
2022-08-21T07:44:13.511Z,10.20
2022-08-21T07:46:41.088Z,9.80
2022-08-21T07:49:08.605Z,6.87
2022-08-21T07:51:37.044Z,6.07
2022-08-21T07:54:04.720Z,8.20
2022-08-21T07:56:33.644Z,6.47
2022-08-21T07:59:03.762Z,7.87
2022-08-21T08:01:31.786Z,7.90
2022-08-21T08:03:59.495Z,13.00
2022-08-21T08:06:27.434Z,7.57
2022-08-21T08:08:54.937Z,6.50
2022-08-21T08:11:23.897Z,5.37
2022-08-21T08:13:53.490Z,6.30
2022-08-21T08:16:21.264Z,9.13
2022-08-21T08:18:49.596Z,9.40
2022-08-21T08:21:18.992Z,7.50
2022-08-21T08:23:46.498Z,7.77
2022-08-21T08:26:17.328Z,4.27
2022-08-21T08:28:44.971Z,4.90
2022-08-21T08:31:12.666Z,10.20
2022-08-21T08:33:40.493Z,9.10
2022-08-21T08:36:20.135Z,7.90
2022-08-21T08:38:49.273Z,5.97
2022-08-21T08:41:23.956Z,5.90
2022-08-21T08:44:08.356Z,6.97
2022-08-21T08:46:53.661Z,10.33
2022-08-21T08:49:43.842Z,5.00
2022-08-21T08:52:34.392Z,5.50
2022-08-21T08:55:41.212Z,6.27
2022-08-21T08:58:34.251Z,5.20
2022-08-21T09:01:08.259Z,6.20
2022-08-21T09:03:41.165Z,5.10
2022-08-21T09:06:40.108Z,3.83
2022-08-21T09:10:07.137Z,6.10
2022-08-21T09:13:50.463Z,7.00
2022-08-21T09:16:52.631Z,6.00
2022-08-21T09:20:17.326Z,3.00
2022-08-21T09:23:44.652Z,4.50
2022-08-21T09:26:31.755Z,5.30
2022-08-21T09:29:04.476Z,5.80
2022-08-21T09:31:40.993Z,4.97
2022-08-21T09:34:14.809Z,4.83
2022-08-21T09:36:51.769Z,5.00
2022-08-21T09:39:43.570Z,4.10
2022-08-21T09:42:33.214Z,9.20
2022-08-21T09:45:20.074Z,5.30
2022-08-21T09:47:47.580Z,5.23
2022-08-21T09:50:30.223Z,3.60
2022-08-21T09:53:02.190Z,4.37
2022-08-21T09:56:09.417Z,3.03
2022-08-21T09:58:42.964Z,2.77
2022-08-21T10:01:20.310Z,3.67
2022-08-21T10:04:04.871Z,4.53
2022-08-21T10:06:32.527Z,4.07
2022-08-21T10:09:21.835Z,4.10
2022-08-21T10:12:17.172Z,6.23
2022-08-21T10:15:29.093Z,6.33
2022-08-21T10:18:49.812Z,5.37
2022-08-21T10:22:07.883Z,5.93
2022-08-21T10:25:10.859Z,5.13
2022-08-21T10:28:27.036Z,3.80
2022-08-21T10:32:04.374Z,4.63
2022-08-21T10:35:18.640Z,4.43
2022-08-21T10:38:39.338Z,4.23
2022-08-21T10:41:35.019Z,6.13
2022-08-21T10:44:55.816Z,4.97
2022-08-21T10:47:43.995Z,3.33
2022-08-21T10:50:55.455Z,5.50
2022-08-21T10:54:19.110Z,2.57
2022-08-21T10:57:05.434Z,2.90
2022-08-21T11:00:12.453Z,5.33
2022-08-21T11:03:11.726Z,4.37
2022-08-21T11:06:18.659Z,4.70
2022-08-21T11:09:00.726Z,3.30
2022-08-21T11:11:41.102Z,3.50
2022-08-21T11:15:06.954Z,6.23
2022-08-21T11:18:27.896Z,5.80
2022-08-21T11:21:52.349Z,3.53
2022-08-21T11:25:18.502Z,4.40
2022-08-21T11:28:19.254Z,4.50
2022-08-21T11:31:19.667Z,4.03
2022-08-21T11:34:41.539Z,3.87
2022-08-21T11:37:59.441Z,4.60
2022-08-21T11:41:19.834Z,5.57
2022-08-21T11:44:17.078Z,4.20
2022-08-21T11:47:16.485Z,12.93
2022-08-21T11:50:35.290Z,7.40
2022-08-21T11:53:34.485Z,6.07
2022-08-21T11:56:34.376Z,4.13
2022-08-21T11:59:17.773Z,3.90
2022-08-21T12:01:51.861Z,5.77
2022-08-21T12:04:32.597Z,9.43
2022-08-21T12:07:41.430Z,5.10
2022-08-21T12:10:22.100Z,3.27
2022-08-21T12:12:50.212Z,3.40
2022-08-21T12:15:28.793Z,3.97
2022-08-21T12:18:29.817Z,3.90
2022-08-21T12:21:28.635Z,4.10
2022-08-21T12:24:19.574Z,6.60
2022-08-21T12:27:02.240Z,5.33
2022-08-21T12:29:38.396Z,6.83
2022-08-21T12:32:11.924Z,4.40
2022-08-21T12:35:24.636Z,2.80
2022-08-21T12:38:28.519Z,4.93
2022-08-21T12:41:08.010Z,4.40
2022-08-21T12:43:55.944Z,4.57
2022-08-21T12:46:47.422Z,2.77
2022-08-21T12:49:37.238Z,5.63
2022-08-21T12:52:38.931Z,4.87
2022-08-21T12:55:16.838Z,3.47
2022-08-21T12:57:44.572Z,4.00
2022-08-21T13:00:21.446Z,5.67
2022-08-21T13:02:52.841Z,3.57
2022-08-21T13:05:37.254Z,4.13
2022-08-21T13:08:14.783Z,3.40
2022-08-21T13:10:45.465Z,3.57
2022-08-21T13:13:28.573Z,3.90
2022-08-21T13:16:08.643Z,4.03
2022-08-21T13:19:07.722Z,4.80
2022-08-21T13:21:44.037Z,4.40
2022-08-21T13:24:43.921Z,5.20
2022-08-21T13:27:29.760Z,4.43
2022-08-21T13:30:23.401Z,6.83
2022-08-21T13:33:10.986Z,5.37
2022-08-21T13:36:10.241Z,4.47
2022-08-21T13:38:42.849Z,3.43
2022-08-21T13:41:22.487Z,3.60
2022-08-21T13:44:20.648Z,10.40
2022-08-21T13:46:51.700Z,5.43
2022-08-21T13:49:31.377Z,4.30
2022-08-21T13:51:59.611Z,5.53
2022-08-21T13:54:41.617Z,5.80
2022-08-21T13:57:36.338Z,3.57
2022-08-21T14:00:31.385Z,5.13
2022-08-21T14:03:11.637Z,4.83
2022-08-21T14:05:47.360Z,6.27
2022-08-21T14:08:38.121Z,3.73
2022-08-21T14:11:13.626Z,7.30
2022-08-21T14:14:04.888Z,3.77
2022-08-21T14:17:02.403Z,4.30
2022-08-21T14:19:49.970Z,3.10
2022-08-21T14:22:35.819Z,2.80
2022-08-21T14:25:43.746Z,6.27
2022-08-21T14:28:33.306Z,3.03
2022-08-21T14:31:23.112Z,4.47
2022-08-21T14:33:50.823Z,4.23
2022-08-21T14:36:18.310Z,4.87
2022-08-21T14:38:45.806Z,6.60
2022-08-21T14:41:24.835Z,4.30
2022-08-21T14:44:05.749Z,3.10
2022-08-21T14:46:51.681Z,8.27
2022-08-21T14:49:29.783Z,3.43
2022-08-21T14:51:59.401Z,5.73
2022-08-21T14:54:32.581Z,3.10
2022-08-21T14:57:15.917Z,3.20
2022-08-21T14:59:44.109Z,3.60
2022-08-21T15:02:12.321Z,3.83
2022-08-21T15:04:40.010Z,3.00
2022-08-21T15:07:07.678Z,5.50
2022-08-21T15:09:35.896Z,3.37
2022-08-21T15:12:07.017Z,3.87
2022-08-21T15:14:41.433Z,2.93
2022-08-21T15:17:11.850Z,3.73
2022-08-21T15:19:40.582Z,4.63
2022-08-21T15:22:15.534Z,3.30
2022-08-21T15:24:46.910Z,7.67
2022-08-21T15:27:18.045Z,6.33
2022-08-21T15:29:45.658Z,6.03
2022-08-21T15:32:40.411Z,2.87
2022-08-21T15:35:09.773Z,2.83
2022-08-21T15:37:37.347Z,2.60
2022-08-21T15:40:08.238Z,3.67
2022-08-21T15:42:36.710Z,4.00
2022-08-21T15:45:06.912Z,4.20
2022-08-21T15:47:39.421Z,3.13
2022-08-21T15:50:12.058Z,5.60
2022-08-21T15:52:40.609Z,5.87
2022-08-21T15:55:10.873Z,5.30
2022-08-21T15:57:58.166Z,4.40
2022-08-21T16:00:29.018Z,8.63
2022-08-21T16:03:01.111Z,10.73
2022-08-21T16:05:29.053Z,6.43
2022-08-21T16:07:56.710Z,6.33
2022-08-21T16:10:28.507Z,3.50
2022-08-21T16:13:23.363Z,6.30
2022-08-21T16:15:51.803Z,12.70
2022-08-21T16:18:23.291Z,7.77
2022-08-21T16:20:51.581Z,4.10
2022-08-21T16:23:19.933Z,10.37
2022-08-21T16:25:49.198Z,8.60
2022-08-21T16:28:21.919Z,19.97
2022-08-21T16:30:52.598Z,8.47
2022-08-21T16:33:50.782Z,3.53
2022-08-21T16:36:22.556Z,14.10
2022-08-21T16:38:50.161Z,11.50
2022-08-21T16:41:23.023Z,17.20
2022-08-21T16:43:52.594Z,7.20
2022-08-21T16:46:22.639Z,20.10
2022-08-21T16:48:50.344Z,4.60
2022-08-21T16:51:19.452Z,4.60
2022-08-21T16:53:47.131Z,4.80
2022-08-21T16:56:17.966Z,6.83
2022-08-21T16:58:52.328Z,7.60
2022-08-21T17:01:33.431Z,4.10
2022-08-21T17:04:01.832Z,5.53
2022-08-21T17:06:31.232Z,7.30
2022-08-21T17:09:01.466Z,4.43
2022-08-21T17:11:43.902Z,5.63
2022-08-21T17:14:24.769Z,3.57
2022-08-21T17:16:56.924Z,4.70
2022-08-21T17:19:24.655Z,3.10
2022-08-21T17:21:52.347Z,5.00
2022-08-21T17:24:20.801Z,5.97
2022-08-21T17:26:49.984Z,4.60
2022-08-21T17:29:26.137Z,4.70
2022-08-21T17:31:54.264Z,4.17
2022-08-21T17:34:23.128Z,5.33
2022-08-21T17:36:56.477Z,6.30
2022-08-21T17:39:26.714Z,6.93
2022-08-21T17:41:59.040Z,5.37
2022-08-21T17:44:26.867Z,3.30
2022-08-21T17:46:54.620Z,6.10
2022-08-21T17:49:22.252Z,5.60
2022-08-21T17:51:49.957Z,5.33
2022-08-21T17:54:17.840Z,3.10
2022-08-21T17:56:45.913Z,8.90
2022-08-21T17:59:15.455Z,5.90
2022-08-21T18:01:47.535Z,4.10
2022-08-21T18:04:17.367Z,6.00
2022-08-21T18:06:46.316Z,7.63
2022-08-21T18:09:14.471Z,5.13
2022-08-21T18:11:44.528Z,3.40
2022-08-21T18:14:13.718Z,5.77
2022-08-21T18:16:42.698Z,4.53
2022-08-21T18:19:16.087Z,7.10
2022-08-21T18:21:44.595Z,5.50
2022-08-21T18:24:12.091Z,5.37
2022-08-21T18:26:42.951Z,7.27
2022-08-21T18:29:18.532Z,4.33
2022-08-21T18:31:49.079Z,5.77
2022-08-21T18:34:41.591Z,9.17
2022-08-21T18:37:10.009Z,5.00
2022-08-21T18:39:38.192Z,6.90
2022-08-21T18:42:14.750Z,5.67
2022-08-21T18:44:50.807Z,7.13
2022-08-21T18:47:33.766Z,5.60
2022-08-21T18:50:01.539Z,8.30
2022-08-21T18:52:29.189Z,8.57
2022-08-21T18:54:56.792Z,4.83
2022-08-21T18:57:30.885Z,7.17
2022-08-21T18:59:58.914Z,8.80
2022-08-21T19:02:26.817Z,6.00
2022-08-21T19:04:54.413Z,5.30
2022-08-21T19:07:22.052Z,5.73
2022-08-21T19:10:21.023Z,4.47
2022-08-21T19:12:41.640Z,8.67
2022-08-21T19:15:20.321Z,5.33
2022-08-21T19:17:52.854Z,6.33
2022-08-21T19:20:34.576Z,3.90
2022-08-21T19:23:06.761Z,3.67
2022-08-21T19:25:39.700Z,8.60
2022-08-21T19:28:26.573Z,5.07
2022-08-21T19:31:32.479Z,7.47
2022-08-21T19:34:23.897Z,5.57
2022-08-21T19:36:51.953Z,4.83
2022-08-21T19:39:19.860Z,5.37
2022-08-21T19:41:56.547Z,6.87
2022-08-21T19:44:31.070Z,7.27
2022-08-21T19:47:05.482Z,6.40
2022-08-21T19:49:36.417Z,6.50
2022-08-21T19:52:12.924Z,6.13
2022-08-21T19:57:29.009Z,5.47
2022-08-21T19:59:56.831Z,6.57
2022-08-21T20:02:24.347Z,6.67
2022-08-21T20:04:53.592Z,4.63
2022-08-21T20:07:26.543Z,6.50
2022-08-21T20:09:56.945Z,7.50
2022-08-21T20:12:25.448Z,5.37
2022-08-21T20:14:54.003Z,5.30
2022-08-21T20:17:22.264Z,5.80
2022-08-21T20:19:54.362Z,3.70
2022-08-21T20:22:23.968Z,5.03
2022-08-21T20:24:52.055Z,6.53
2022-08-21T20:27:28.319Z,5.30
2022-08-21T20:29:56.706Z,6.23
2022-08-21T20:32:26.939Z,11.10
2022-08-21T20:34:55.072Z,6.63
2022-08-21T20:37:36.233Z,6.70
2022-08-21T20:40:13.946Z,6.50
2022-08-21T20:42:50.082Z,4.60
2022-08-21T20:45:32.088Z,6.73
2022-08-21T20:48:24.896Z,5.47
2022-08-21T20:51:21.289Z,7.70
2022-08-21T20:54:41.516Z,5.50
2022-08-21T20:58:08.420Z,7.33
2022-08-21T21:00:43.782Z,5.20
2022-08-21T21:03:42.999Z,6.20
2022-08-21T21:06:25.666Z,7.43
2022-08-21T21:09:27.068Z,5.60
2022-08-21T21:12:09.547Z,6.67
2022-08-21T21:14:55.746Z,6.60
2022-08-21T21:21:29.817Z,9.60
2022-08-21T21:24:19.673Z,6.77
2022-08-21T21:27:11.761Z,7.50
2022-08-21T21:30:04.811Z,9.47
2022-08-21T21:32:32.949Z,6.57
2022-08-21T21:35:07.489Z,9.27
2022-08-21T21:38:51.518Z,7.40
2022-08-21T21:41:55.658Z,7.37
2022-08-21T21:45:02.483Z,6.47
2022-08-21T21:48:15.900Z,6.77
2022-08-21T21:51:00.791Z,10.53
2022-08-21T21:54:09.430Z,5.57
2022-08-21T21:57:24.953Z,7.17
2022-08-21T22:00:20.221Z,8.27
2022-08-21T22:03:29.242Z,7.67
2022-08-21T22:06:12.996Z,7.70
2022-08-21T22:09:22.873Z,8.20
2022-08-21T22:13:09.730Z,5.60
2022-08-21T22:15:38.791Z,5.03
2022-08-21T22:18:21.466Z,7.10
2022-08-21T22:21:14.614Z,6.97
2022-08-21T22:23:52.685Z,8.20
2022-08-21T22:26:36.103Z,7.10
2022-08-21T22:29:13.958Z,5.23
2022-08-21T22:31:43.871Z,6.33
2022-08-21T22:34:20.154Z,8.30
2022-08-21T22:37:10.676Z,10.23
2022-08-21T22:39:53.784Z,9.80
2022-08-21T22:42:27.556Z,6.40
2022-08-21T22:45:14.554Z,13.23
2022-08-21T22:47:48.893Z,13.23
2022-08-21T22:50:35.252Z,11.60
2022-08-21T22:53:09.912Z,15.17
2022-08-21T22:55:58.523Z,7.43
2022-08-21T22:58:38.732Z,8.17
2022-08-21T23:01:45.106Z,7.20
2022-08-21T23:04:26.036Z,9.43
2022-08-21T23:07:02.631Z,6.90
2022-08-21T23:09:53.322Z,6.80
2022-08-21T23:12:43.758Z,5.53
2022-08-21T23:15:18.363Z,7.80
2022-08-21T23:18:13.471Z,6.27
2022-08-21T23:21:31.728Z,6.60
2022-08-21T23:24:33.652Z,7.67
2022-08-21T23:28:05.833Z,6.17
2022-08-21T23:31:46.207Z,8.90
2022-08-21T23:34:50.115Z,6.53
2022-08-21T23:38:29.161Z,8.30
2022-08-21T23:41:34.409Z,7.90
2022-08-21T23:45:10.811Z,8.77
2022-08-21T23:48:47.214Z,12.23
2022-08-21T23:52:15.027Z,6.00
2022-08-21T23:55:38.301Z,6.70
2022-08-21T23:58:46.455Z,7.40
